createdAt,value
2024-03-04T00:02:13.472Z,37.10
2024-03-04T00:04:40.858Z,42.30
2024-03-04T00:07:08.131Z,37.77
2024-03-04T00:09:35.772Z,37.50
2024-03-04T00:12:05.148Z,35.33
2024-03-04T00:14:32.947Z,37.33
2024-03-04T00:17:01.207Z,32.70
2024-03-04T00:19:28.781Z,38.63
2024-03-04T00:21:57.332Z,37.80
2024-03-04T00:24:24.702Z,35.60
2024-03-04T00:26:51.929Z,37.43
2024-03-04T00:29:19.202Z,38.93
2024-03-04T00:31:46.398Z,40.03
2024-03-04T00:34:14.078Z,34.03
2024-03-04T00:36:41.348Z,35.97
2024-03-04T00:39:10.762Z,36.73
2024-03-04T00:41:38.013Z,34.17
2024-03-04T00:44:05.787Z,33.57
2024-03-04T00:46:33.244Z,35.07
2024-03-04T00:49:00.586Z,37.53
2024-03-04T00:51:28.419Z,35.00
2024-03-04T00:53:55.967Z,31.60
2024-03-04T00:56:23.183Z,35.17
2024-03-04T00:58:50.445Z,33.93
2024-03-04T01:01:17.892Z,33.37
2024-03-04T01:03:45.158Z,34.73
2024-03-04T01:06:12.680Z,33.93
2024-03-04T01:08:40.354Z,34.53
2024-03-04T01:11:08.795Z,36.67
2024-03-04T01:13:36.090Z,35.27
2024-03-04T01:16:03.386Z,34.80
2024-03-04T01:18:30.673Z,37.73
2024-03-04T01:20:58.041Z,34.63
2024-03-04T01:23:25.315Z,30.90
2024-03-04T01:25:52.647Z,33.07
2024-03-04T01:28:19.897Z,37.10
2024-03-04T01:30:47.149Z,39.37
2024-03-04T01:33:14.707Z,34.77
2024-03-04T01:35:41.928Z,36.37
2024-03-04T01:38:09.394Z,33.20
2024-03-04T01:40:36.838Z,33.07
2024-03-04T01:43:04.524Z,37.00
2024-03-04T01:45:33.061Z,31.80
2024-03-04T01:48:05.914Z,33.50
2024-03-04T01:50:37.034Z,31.90
2024-03-04T01:53:06.260Z,34.03
2024-03-04T01:56:01.487Z,34.13
2024-03-04T01:58:29.374Z,33.07
2024-03-04T02:01:01.057Z,34.07
2024-03-04T02:03:33.063Z,34.20
2024-03-04T02:06:01.802Z,34.13
2024-03-04T02:08:30.019Z,36.13
2024-03-04T02:10:57.635Z,32.50
2024-03-04T02:13:28.882Z,32.67
2024-03-04T02:15:56.225Z,31.07
2024-03-04T02:18:23.807Z,33.80
2024-03-04T02:20:56.777Z,33.77
2024-03-04T02:23:24.602Z,34.40
2024-03-04T02:25:57.949Z,30.43
2024-03-04T02:28:29.864Z,35.73
2024-03-04T02:31:02.440Z,35.90
2024-03-04T02:33:31.049Z,34.27
2024-03-04T02:35:59.830Z,33.00
2024-03-04T02:38:27.237Z,38.17
2024-03-04T02:40:54.451Z,36.60
2024-03-04T02:43:23.048Z,35.67
2024-03-04T02:45:50.353Z,36.03
2024-03-04T02:48:17.565Z,34.30
2024-03-04T02:50:44.847Z,31.73
2024-03-04T02:53:12.478Z,34.73
2024-03-04T02:55:39.797Z,34.57
2024-03-04T02:58:09.652Z,33.30
2024-03-04T03:00:36.936Z,34.27
2024-03-04T03:03:05.517Z,33.77
2024-03-04T03:05:32.806Z,36.33
2024-03-04T03:08:00.132Z,38.20
2024-03-04T03:10:29.381Z,35.53
2024-03-04T03:12:57.122Z,33.00
2024-03-04T03:15:24.528Z,33.87
2024-03-04T03:17:51.787Z,36.13
2024-03-04T03:20:19.586Z,35.90
2024-03-04T03:22:48.941Z,33.93
2024-03-04T03:25:16.263Z,34.07
2024-03-04T03:27:44.037Z,34.77
2024-03-04T03:30:11.993Z,36.93
2024-03-04T03:32:40.970Z,35.50
2024-03-04T03:35:08.831Z,36.73
2024-03-04T03:37:36.227Z,34.03
2024-03-04T03:40:04.733Z,38.43
2024-03-04T03:42:35.152Z,34.57
2024-03-04T03:45:02.551Z,35.20
2024-03-04T03:47:32.609Z,38.60
2024-03-04T03:50:02.713Z,36.50
2024-03-04T03:52:32.787Z,37.00
2024-03-04T03:55:00.371Z,37.10
2024-03-04T03:57:31.730Z,37.80
2024-03-04T04:00:05.939Z,38.57
2024-03-04T04:02:39.840Z,38.40
2024-03-04T04:05:07.631Z,38.97
2024-03-04T04:07:35.235Z,36.00
2024-03-04T04:10:02.739Z,38.77
2024-03-04T04:12:30.013Z,38.93
2024-03-04T04:14:57.261Z,33.47
2024-03-04T04:17:26.573Z,40.27
2024-03-04T04:19:53.784Z,42.13
2024-03-04T04:22:24.758Z,39.87
2024-03-04T04:24:52.293Z,35.57
2024-03-04T04:27:19.554Z,37.13
2024-03-04T04:29:46.810Z,38.17
2024-03-04T04:32:14.318Z,40.77
2024-03-04T04:34:45.601Z,39.70
2024-03-04T04:37:13.421Z,39.77
2024-03-04T04:39:42.036Z,38.27
2024-03-04T04:42:10.240Z,37.50
2024-03-04T04:44:37.861Z,36.37
2024-03-04T04:47:05.518Z,39.10
2024-03-04T04:49:33.029Z,38.37
2024-03-04T04:52:00.356Z,37.73
2024-03-04T04:54:27.844Z,37.13
2024-03-04T04:56:55.115Z,39.17
2024-03-04T04:59:22.597Z,38.20
2024-03-04T05:01:50.083Z,36.97
2024-03-04T05:04:32.451Z,38.50
2024-03-04T05:07:07.248Z,39.67
2024-03-04T05:09:34.774Z,34.63
2024-03-04T05:12:02.027Z,41.00
2024-03-04T05:14:29.309Z,40.60
2024-03-04T05:16:56.805Z,36.53
2024-03-04T05:19:26.588Z,37.03
2024-03-04T05:21:53.908Z,41.37
2024-03-04T05:24:21.202Z,38.50
2024-03-04T05:26:49.535Z,38.67
2024-03-04T05:29:16.854Z,34.63
2024-03-04T05:32:00.900Z,39.23
2024-03-04T05:34:29.090Z,38.80
2024-03-04T05:36:56.882Z,38.90
2024-03-04T05:39:24.418Z,38.50
2024-03-04T05:41:52.473Z,41.20
2024-03-04T05:44:21.680Z,39.10
2024-03-04T05:46:49.343Z,37.87
2024-03-04T05:49:16.934Z,40.40
2024-03-04T05:51:44.488Z,35.53
2024-03-04T05:54:12.633Z,39.27
2024-03-04T05:56:44.933Z,41.47
2024-03-04T05:59:13.066Z,40.53
2024-03-04T06:01:41.261Z,37.03
2024-03-04T06:04:09.276Z,38.83
2024-03-04T06:06:37.713Z,39.20
2024-03-04T06:09:09.073Z,42.67
2024-03-04T06:11:36.673Z,37.83
2024-03-04T06:14:04.029Z,37.13
2024-03-04T06:16:31.467Z,39.87
2024-03-04T06:18:59.304Z,38.73
2024-03-04T06:21:26.646Z,37.57
2024-03-04T06:23:54.695Z,39.33
2024-03-04T06:26:22.081Z,40.63
2024-03-04T06:28:49.618Z,39.77
2024-03-04T06:31:17.646Z,38.30
2024-03-04T06:33:52.506Z,41.77
2024-03-04T06:36:22.064Z,40.47
2024-03-04T06:38:49.961Z,39.43
2024-03-04T06:41:18.488Z,41.93
2024-03-04T06:43:46.016Z,42.17
2024-03-04T06:46:13.610Z,39.37
2024-03-04T06:48:41.027Z,41.30
2024-03-04T06:51:08.870Z,39.40
2024-03-04T06:53:36.124Z,41.53
2024-03-04T06:56:08.651Z,38.90
2024-03-04T06:58:37.338Z,43.63
2024-03-04T07:01:05.684Z,36.53
2024-03-04T07:03:33.695Z,36.63
2024-03-04T07:06:01.603Z,38.63
2024-03-04T07:08:31.601Z,40.77
2024-03-04T07:11:01.110Z,37.73
2024-03-04T07:13:28.491Z,39.60
2024-03-04T07:15:56.097Z,36.43
2024-03-04T07:18:23.496Z,40.53
2024-03-04T07:20:50.822Z,37.00
2024-03-04T07:23:18.161Z,42.33
2024-03-04T07:25:45.540Z,44.83
2024-03-04T07:28:14.228Z,37.57
2024-03-04T07:30:41.503Z,35.07
2024-03-04T07:33:10.789Z,37.73
2024-03-04T07:35:39.093Z,37.40
2024-03-04T07:38:06.488Z,38.93
2024-03-04T07:40:33.838Z,37.07
2024-03-04T07:43:03.014Z,37.57
2024-03-04T07:45:30.924Z,37.30
2024-03-04T07:47:58.491Z,33.97
2024-03-04T07:50:25.825Z,38.17
2024-03-04T07:52:53.594Z,36.63
2024-03-04T07:55:23.801Z,36.03
2024-03-04T07:57:51.607Z,37.87
2024-03-04T08:00:19.817Z,36.40
2024-03-04T08:02:47.415Z,36.50
2024-03-04T08:05:14.717Z,36.87
2024-03-04T08:07:42.018Z,37.87
2024-03-04T08:10:10.391Z,38.13
2024-03-04T08:12:37.919Z,34.73
2024-03-04T08:15:06.865Z,34.70
2024-03-04T08:17:34.516Z,34.47
2024-03-04T08:20:11.403Z,32.73
2024-03-04T08:22:44.658Z,32.93
2024-03-04T08:25:12.159Z,33.00
2024-03-04T08:27:39.827Z,33.07
2024-03-04T08:30:10.370Z,35.50
2024-03-04T08:32:40.015Z,32.23
2024-03-04T08:35:07.518Z,32.10
2024-03-04T08:37:35.298Z,31.90
2024-03-04T08:40:05.558Z,33.60
2024-03-04T08:42:33.297Z,34.03
2024-03-04T08:45:00.616Z,32.07
2024-03-04T08:47:28.116Z,30.77
2024-03-04T08:49:56.472Z,30.00
2024-03-04T08:52:24.592Z,31.73
2024-03-04T08:54:51.900Z,33.37
2024-03-04T08:57:19.628Z,31.30
2024-03-04T08:59:47.198Z,29.77
2024-03-04T09:02:14.994Z,31.10
2024-03-04T09:04:43.020Z,29.70
2024-03-04T09:07:10.831Z,33.60
2024-03-04T09:09:38.633Z,31.00
2024-03-04T09:12:06.325Z,28.23
2024-03-04T09:14:33.696Z,29.20
2024-03-04T09:17:01.551Z,29.13
2024-03-04T09:19:28.941Z,28.83
2024-03-04T09:21:56.335Z,26.00
2024-03-04T09:24:23.653Z,27.30
2024-03-04T09:26:51.095Z,25.43
2024-03-04T09:29:18.409Z,25.97
2024-03-04T09:31:46.137Z,27.60
2024-03-04T09:34:13.839Z,25.33
2024-03-04T09:36:41.065Z,25.97
2024-03-04T09:39:12.047Z,26.77
2024-03-04T09:41:41.034Z,28.07
2024-03-04T09:44:08.386Z,29.20
2024-03-04T09:46:41.320Z,29.27
2024-03-04T09:49:10.110Z,27.77
2024-03-04T09:51:39.572Z,27.87
2024-03-04T09:54:07.832Z,25.43
2024-03-04T09:56:35.454Z,25.83
2024-03-04T09:59:04.356Z,26.73
2024-03-04T10:01:33.830Z,26.73
2024-03-04T10:04:01.541Z,26.33
2024-03-04T10:06:29.192Z,27.70
2024-03-04T10:08:56.678Z,23.93
2024-03-04T10:11:24.134Z,27.47
2024-03-04T10:13:53.214Z,24.50
2024-03-04T10:16:21.041Z,24.60
2024-03-04T10:19:04.581Z,25.80
2024-03-04T10:21:33.493Z,22.73
2024-03-04T10:24:11.079Z,25.57
2024-03-04T10:26:47.147Z,26.47
2024-03-04T10:29:17.047Z,22.33
2024-03-04T10:31:53.127Z,24.80
2024-03-04T10:34:22.054Z,24.40
2024-03-04T10:36:52.354Z,25.73
2024-03-04T10:39:20.258Z,25.30
2024-03-04T10:41:48.950Z,24.60
2024-03-04T10:44:28.777Z,24.73
2024-03-04T10:47:00.589Z,28.17
2024-03-04T10:49:30.968Z,25.37
2024-03-04T10:52:08.310Z,26.50
2024-03-04T10:54:45.215Z,23.87
2024-03-04T10:57:28.228Z,28.27
2024-03-04T11:00:25.919Z,24.23
2024-03-04T11:03:02.991Z,25.37
2024-03-04T11:05:35.613Z,26.37
2024-03-04T11:08:18.193Z,25.60
2024-03-04T11:10:52.676Z,26.57
2024-03-04T11:13:35.307Z,24.17
2024-03-04T11:16:32.122Z,24.97
2024-03-04T11:19:32.940Z,24.53
2024-03-04T11:22:03.246Z,24.43
2024-03-04T11:24:32.404Z,23.33
2024-03-04T11:27:00.974Z,24.67
2024-03-04T11:29:28.573Z,28.03
2024-03-04T11:32:01.184Z,25.17
2024-03-04T11:34:28.555Z,25.73
2024-03-04T11:37:00.013Z,28.70
2024-03-04T11:39:27.547Z,27.60
2024-03-04T11:41:55.510Z,27.83
2024-03-04T11:44:29.770Z,25.33
2024-03-04T11:46:58.657Z,27.63
2024-03-04T11:49:34.279Z,26.70
2024-03-04T11:52:09.995Z,27.23
2024-03-04T11:54:37.238Z,27.77
2024-03-04T11:57:07.161Z,25.83
2024-03-04T11:59:36.768Z,28.63
2024-03-04T12:02:11.426Z,28.20
2024-03-04T12:04:41.815Z,27.73
2024-03-04T12:07:09.634Z,27.37
2024-03-04T12:09:50.960Z,30.63
2024-03-04T12:12:24.461Z,30.20
2024-03-04T12:14:52.613Z,26.67
2024-03-04T12:17:19.856Z,25.43
2024-03-04T12:19:54.904Z,28.37
2024-03-04T12:22:32.254Z,26.67
2024-03-04T12:25:10.429Z,29.13
2024-03-04T12:27:42.358Z,26.07
2024-03-04T12:30:19.378Z,24.03
2024-03-04T12:32:51.998Z,26.00
2024-03-04T12:35:24.153Z,26.50
2024-03-04T12:37:54.759Z,23.67
2024-03-04T12:40:25.192Z,25.63
2024-03-04T12:43:00.623Z,25.50
2024-03-04T12:45:30.837Z,24.90
2024-03-04T12:47:59.363Z,27.23
2024-03-04T12:50:29.061Z,26.57
2024-03-04T12:52:58.867Z,31.00
2024-03-04T12:55:27.539Z,27.50
2024-03-04T12:57:57.420Z,29.67
2024-03-04T13:00:25.135Z,25.33
2024-03-04T13:02:52.613Z,23.77
2024-03-04T13:05:20.357Z,23.77
2024-03-04T13:07:48.388Z,25.53
2024-03-04T13:10:16.954Z,24.50
2024-03-04T13:12:49.239Z,25.93
2024-03-04T13:15:17.195Z,23.57
2024-03-04T13:17:45.085Z,21.73
2024-03-04T13:20:16.446Z,24.40
2024-03-04T13:22:47.826Z,21.87
2024-03-04T13:25:17.607Z,24.43
2024-03-04T13:27:47.425Z,21.60
2024-03-04T13:30:15.340Z,21.27
2024-03-04T13:32:43.076Z,22.57
2024-03-04T13:35:10.845Z,23.80
2024-03-04T13:37:39.684Z,25.93
2024-03-04T13:40:09.128Z,22.57
2024-03-04T13:42:38.391Z,24.50
2024-03-04T13:45:08.462Z,22.17
2024-03-04T13:47:42.361Z,24.40
2024-03-04T13:50:13.467Z,21.97
2024-03-04T13:52:41.739Z,22.03
2024-03-04T13:55:09.672Z,23.27
2024-03-04T13:57:37.142Z,26.17
2024-03-04T14:00:04.864Z,23.30
2024-03-04T14:02:39.174Z,21.67
2024-03-04T14:05:07.379Z,25.33
2024-03-04T14:07:34.706Z,23.20
2024-03-04T14:10:04.162Z,26.20
2024-03-04T14:12:31.559Z,22.97
2024-03-04T14:14:58.820Z,24.30
2024-03-04T14:17:26.167Z,25.03
2024-03-04T14:19:53.545Z,23.87
2024-03-04T14:22:21.344Z,24.53
2024-03-04T14:24:48.854Z,20.20
2024-03-04T14:27:16.249Z,20.77
2024-03-04T14:29:44.295Z,21.87
2024-03-04T14:32:11.840Z,19.50
2024-03-04T14:34:39.512Z,20.37
2024-03-04T14:37:06.888Z,21.13
2024-03-04T14:39:34.194Z,22.50
2024-03-04T14:42:01.422Z,22.03
2024-03-04T14:44:28.775Z,24.07
2024-03-04T14:46:56.726Z,24.97
2024-03-04T14:49:25.444Z,25.00
2024-03-04T14:51:52.910Z,23.70
2024-03-04T14:54:20.476Z,22.53
2024-03-04T14:56:47.716Z,23.90
2024-03-04T14:59:15.152Z,21.23
2024-03-04T15:01:42.951Z,23.23
2024-03-04T15:04:11.923Z,24.13
2024-03-04T15:06:39.685Z,21.80
2024-03-04T15:09:09.884Z,25.43
2024-03-04T15:11:43.948Z,22.13
2024-03-04T15:14:12.017Z,22.20
2024-03-04T15:16:39.617Z,25.87
2024-03-04T15:19:10.059Z,26.30
2024-03-04T15:21:40.220Z,26.13
2024-03-04T15:24:11.428Z,21.37
2024-03-04T15:26:39.480Z,20.37
2024-03-04T15:29:11.172Z,19.90
2024-03-04T15:31:39.624Z,20.73
2024-03-04T15:34:10.189Z,21.43
2024-03-04T15:36:49.658Z,21.43
2024-03-04T15:39:20.621Z,21.70
2024-03-04T15:41:48.640Z,20.90
2024-03-04T15:44:20.081Z,18.40
2024-03-04T15:46:49.482Z,20.30
2024-03-04T15:49:23.317Z,21.70
2024-03-04T15:51:53.804Z,23.60
2024-03-04T15:54:21.099Z,23.47
2024-03-04T15:56:48.334Z,20.33
2024-03-04T15:59:16.065Z,19.70
2024-03-04T16:01:44.705Z,21.23
2024-03-04T16:04:12.013Z,17.97
2024-03-04T16:06:44.013Z,21.87
2024-03-04T16:09:14.025Z,24.07
2024-03-04T16:11:41.678Z,21.87
2024-03-04T16:14:09.067Z,21.13
2024-03-04T16:16:36.480Z,22.03
2024-03-04T16:19:04.394Z,17.70
2024-03-04T16:21:34.274Z,17.23
2024-03-04T16:24:02.384Z,20.20
2024-03-04T16:26:31.820Z,18.60
2024-03-04T16:29:00.663Z,19.47
2024-03-04T16:31:29.136Z,17.80
2024-03-04T16:34:00.871Z,20.87
2024-03-04T16:36:28.125Z,19.33
2024-03-04T16:38:56.498Z,17.60
2024-03-04T16:41:23.899Z,18.43
2024-03-04T16:43:51.265Z,17.23
2024-03-04T16:46:18.626Z,15.67
2024-03-04T16:48:46.298Z,17.03
2024-03-04T16:51:14.008Z,17.77
2024-03-04T16:53:41.365Z,16.60
2024-03-04T16:56:12.217Z,16.27
2024-03-04T16:58:41.129Z,18.93
2024-03-04T17:01:09.025Z,17.53
2024-03-04T17:03:38.133Z,17.87
2024-03-04T17:06:05.706Z,19.60
2024-03-04T17:08:32.952Z,20.03
2024-03-04T17:11:00.384Z,14.20
2024-03-04T17:13:27.705Z,19.97
2024-03-04T17:15:54.920Z,17.03
2024-03-04T17:18:23.189Z,19.30
2024-03-04T17:20:50.397Z,17.70
2024-03-04T17:23:17.704Z,17.97
2024-03-04T17:25:44.949Z,19.23
2024-03-04T17:28:17.486Z,17.43
2024-03-04T17:30:45.668Z,16.70
2024-03-04T17:33:13.019Z,14.13
2024-03-04T17:35:40.498Z,14.03
2024-03-04T17:38:09.351Z,13.00
2024-03-04T17:40:37.467Z,15.93
2024-03-04T17:43:05.346Z,13.87
2024-03-04T17:45:32.563Z,14.80
2024-03-04T17:47:59.832Z,13.83
2024-03-04T17:50:27.353Z,17.37
2024-03-04T17:52:54.617Z,13.73
2024-03-04T17:55:22.117Z,13.93
2024-03-04T17:57:49.406Z,13.37
2024-03-04T18:00:17.434Z,13.90
2024-03-04T18:02:45.208Z,14.47
2024-03-04T18:05:12.420Z,15.97
2024-03-04T18:07:39.837Z,15.37
2024-03-04T18:10:09.771Z,15.30
2024-03-04T18:12:37.609Z,15.03
2024-03-04T18:15:05.777Z,14.27
2024-03-04T18:17:33.027Z,15.57
2024-03-04T18:20:00.238Z,14.50
2024-03-04T18:22:28.202Z,13.40
2024-03-04T18:24:55.560Z,14.07
2024-03-04T18:27:22.768Z,15.63
2024-03-04T18:29:50.278Z,13.57
2024-03-04T18:32:17.518Z,14.97
2024-03-04T18:34:44.843Z,14.47
2024-03-04T18:37:15.624Z,19.77
2024-03-04T18:39:43.227Z,11.37
2024-03-04T18:42:11.664Z,15.30
2024-03-04T18:44:44.299Z,16.37
2024-03-04T18:47:11.592Z,15.60
2024-03-04T18:49:39.356Z,15.53
2024-03-04T18:52:06.703Z,13.33
2024-03-04T18:54:34.067Z,17.07
2024-03-04T18:57:01.305Z,13.67
2024-03-04T18:59:28.713Z,14.77
2024-03-04T19:01:57.042Z,16.70
2024-03-04T19:04:24.674Z,15.10
2024-03-04T19:06:51.907Z,15.47
2024-03-04T19:09:20.468Z,15.47
2024-03-04T19:11:50.921Z,17.20
2024-03-04T19:14:18.176Z,16.30
2024-03-04T19:16:46.438Z,16.43
2024-03-04T19:19:13.866Z,16.27
2024-03-04T19:21:41.366Z,16.30
2024-03-04T19:24:08.628Z,22.27
2024-03-04T19:26:36.495Z,15.27
2024-03-04T19:29:04.169Z,15.47
2024-03-04T19:31:31.380Z,16.87
2024-03-04T19:33:59.453Z,13.10
2024-03-04T19:36:26.661Z,18.40
2024-03-04T19:38:54.077Z,13.40
2024-03-04T19:41:26.245Z,17.00
2024-03-04T19:43:53.825Z,13.27
2024-03-04T19:46:26.872Z,13.40
2024-03-04T19:48:54.344Z,18.83
2024-03-04T19:51:23.220Z,16.70
2024-03-04T19:53:51.848Z,13.93
2024-03-04T19:56:19.174Z,15.73
2024-03-04T19:58:47.399Z,17.87
2024-03-04T20:01:15.413Z,13.90
2024-03-04T20:03:44.590Z,16.70
2024-03-04T20:06:13.006Z,14.77
2024-03-04T20:08:42.029Z,15.37
2024-03-04T20:11:13.555Z,16.37
2024-03-04T20:13:45.560Z,18.47
2024-03-04T20:16:17.101Z,15.07
2024-03-04T20:18:44.527Z,11.67
2024-03-04T20:21:12.976Z,12.07
2024-03-04T20:23:41.897Z,13.37
2024-03-04T20:26:09.654Z,15.17
2024-03-04T20:28:40.400Z,12.67
2024-03-04T20:31:07.994Z,13.33
2024-03-04T20:33:35.890Z,16.87
2024-03-04T20:36:05.405Z,19.27
2024-03-04T20:38:32.967Z,15.87
2024-03-04T20:41:00.258Z,14.53
2024-03-04T20:43:27.516Z,16.60
2024-03-04T20:45:55.396Z,15.20
2024-03-04T20:48:23.575Z,13.67
2024-03-04T20:50:51.108Z,17.50
2024-03-04T20:53:18.368Z,16.90
2024-03-04T20:55:45.627Z,14.33
2024-03-04T20:58:12.997Z,11.73
2024-03-04T21:00:40.932Z,14.90
2024-03-04T21:03:08.386Z,20.97
2024-03-04T21:05:37.377Z,19.67
2024-03-04T21:08:06.599Z,12.67
2024-03-04T21:10:34.052Z,13.73
2024-03-04T21:13:01.397Z,13.93
2024-03-04T21:15:28.612Z,13.80
2024-03-04T21:17:58.580Z,14.53
2024-03-04T21:20:27.587Z,14.50
2024-03-04T21:22:55.920Z,16.13
2024-03-04T21:25:23.817Z,13.57
2024-03-04T21:27:53.565Z,12.47
2024-03-04T21:30:22.066Z,14.90
2024-03-04T21:32:49.503Z,12.73
2024-03-04T21:35:16.698Z,13.33
2024-03-04T21:37:43.925Z,12.13
2024-03-04T21:40:15.068Z,16.17
2024-03-04T21:42:45.410Z,14.80
2024-03-04T21:45:13.470Z,18.03
2024-03-04T21:47:40.741Z,15.57
2024-03-04T21:50:10.598Z,14.60
2024-03-04T21:52:42.134Z,14.47
2024-03-04T21:55:09.799Z,20.30
2024-03-04T21:57:37.006Z,14.40
2024-03-04T22:00:14.986Z,37.37
2024-03-04T22:02:44.047Z,20.10
2024-03-04T22:05:14.043Z,14.43
2024-03-04T22:07:41.907Z,14.60
2024-03-04T22:10:12.274Z,19.47
2024-03-04T22:12:41.038Z,15.30
2024-03-04T22:15:10.869Z,13.60
2024-03-04T22:17:38.450Z,12.17
2024-03-04T22:20:11.229Z,13.73
2024-03-04T22:22:38.807Z,17.17
2024-03-04T22:25:07.112Z,16.33
2024-03-04T22:27:34.673Z,20.00
2024-03-04T22:30:01.848Z,14.57
2024-03-04T22:32:29.285Z,16.50
2024-03-04T22:34:56.681Z,13.93
2024-03-04T22:37:24.123Z,14.00
2024-03-04T22:39:51.523Z,15.27
2024-03-04T22:42:20.266Z,16.40
2024-03-04T22:44:47.696Z,14.97
2024-03-04T22:47:15.045Z,16.33
2024-03-04T22:49:42.584Z,12.97
2024-03-04T22:52:10.395Z,15.27
2024-03-04T22:54:37.914Z,16.03
2024-03-04T22:57:05.263Z,13.40
2024-03-04T22:59:32.609Z,14.80
2024-03-04T23:01:59.896Z,13.50
2024-03-04T23:04:27.138Z,13.53
2024-03-04T23:06:54.424Z,13.87
2024-03-04T23:09:21.719Z,15.40
2024-03-04T23:11:49.143Z,12.63
2024-03-04T23:14:16.413Z,10.27
2024-03-04T23:16:43.845Z,13.70
2024-03-04T23:19:13.683Z,19.10
2024-03-04T23:21:41.686Z,15.10
2024-03-04T23:24:09.109Z,13.53
2024-03-04T23:26:36.313Z,16.47
2024-03-04T23:29:05.684Z,14.93
2024-03-04T23:31:33.126Z,12.93
2024-03-04T23:34:00.938Z,16.00
2024-03-04T23:36:28.852Z,14.40
2024-03-04T23:38:56.252Z,11.47
2024-03-04T23:41:23.534Z,14.13
2024-03-04T23:43:50.844Z,15.80
2024-03-04T23:46:18.200Z,10.97
2024-03-04T23:48:45.427Z,13.00
2024-03-04T23:51:13.440Z,13.60
2024-03-04T23:53:40.725Z,11.90
2024-03-04T23:56:08.536Z,14.17
2024-03-04T23:58:36.337Z,16.47
